createdAt,value
2019-04-25T00:01:28.906Z,28.53
2019-04-25T00:03:57.483Z,27.33
2019-04-25T00:06:25.764Z,27.87
2019-04-25T00:08:54.034Z,25.87
2019-04-25T00:11:22.874Z,29.80
2019-04-25T00:13:49.319Z,33.57
2019-04-25T00:16:18.044Z,29.73
2019-04-25T00:18:44.450Z,30.30
2019-04-25T00:21:23.047Z,28.73
2019-04-25T00:23:51.571Z,26.27
2019-04-25T00:26:28.461Z,27.90
2019-04-25T00:28:55.093Z,27.23
2019-04-25T00:31:23.173Z,27.97
2019-04-25T00:33:49.619Z,30.13
2019-04-25T00:36:15.872Z,28.83
2019-04-25T00:38:46.219Z,30.73
2019-04-25T00:41:11.605Z,28.03
2019-04-25T00:43:41.309Z,30.57
2019-04-25T00:46:06.342Z,30.57
2019-04-25T00:48:33.068Z,27.63
2019-04-25T00:51:01.736Z,35.50
2019-04-25T00:53:28.251Z,33.20
2019-04-25T00:55:56.454Z,30.30
2019-04-25T00:58:33.727Z,28.93
2019-04-25T01:01:02.528Z,33.97
2019-04-25T01:03:31.716Z,33.97
2019-04-25T01:05:58.413Z,31.67
2019-04-25T01:08:25.043Z,32.03
2019-04-25T01:10:52.310Z,33.90
2019-04-25T01:13:19.738Z,28.30
2019-04-25T01:15:46.411Z,31.10
2019-04-25T01:18:13.799Z,34.30
2019-04-25T01:20:40.376Z,37.43
2019-04-25T01:23:06.943Z,33.70
2019-04-25T01:25:42.258Z,34.40
2019-04-25T01:28:03.207Z,31.97
2019-04-25T01:30:30.253Z,35.20
2019-04-25T01:32:56.846Z,32.17
2019-04-25T01:35:43.088Z,36.20
2019-04-25T01:38:20.868Z,34.50
2019-04-25T01:40:53.389Z,33.83
2019-04-25T01:43:37.536Z,30.23
2019-04-25T01:46:04.473Z,34.57
2019-04-25T01:48:31.015Z,31.60
2019-04-25T01:50:58.513Z,32.50
2019-04-25T01:53:25.396Z,32.80
2019-04-25T01:56:00.668Z,33.17
2019-04-25T01:58:20.524Z,33.93
2019-04-25T02:00:51.340Z,34.73
2019-04-25T02:03:18.349Z,44.20
2019-04-25T02:05:45.188Z,38.00
2019-04-25T02:08:11.698Z,35.90
2019-04-25T02:10:38.422Z,32.47
2019-04-25T02:13:07.096Z,34.70
2019-04-25T02:15:33.648Z,34.67
2019-04-25T02:18:00.620Z,35.67
2019-04-25T02:20:29.365Z,36.03
2019-04-25T02:22:56.467Z,32.47
2019-04-25T02:25:24.641Z,34.37
2019-04-25T02:27:52.734Z,34.90
2019-04-25T02:30:22.249Z,43.13
2019-04-25T02:32:48.652Z,40.93
2019-04-25T02:35:15.617Z,40.27
2019-04-25T02:37:42.146Z,37.83
2019-04-25T02:40:09.227Z,39.00
2019-04-25T02:42:35.823Z,36.93
2019-04-25T02:45:08.638Z,40.77
2019-04-25T02:47:49.126Z,36.37
2019-04-25T02:50:26.505Z,34.83
2019-04-25T02:52:56.881Z,39.93
2019-04-25T02:55:34.230Z,34.73
2019-04-25T02:57:54.118Z,35.53
2019-04-25T03:00:25.659Z,31.17
2019-04-25T03:02:54.591Z,37.27
2019-04-25T03:05:21.035Z,33.97
2019-04-25T03:07:47.756Z,36.63
2019-04-25T03:10:16.045Z,42.73
2019-04-25T03:12:44.545Z,40.00
2019-04-25T03:15:11.316Z,44.17
2019-04-25T03:17:38.038Z,45.73
2019-04-25T03:20:14.983Z,42.03
2019-04-25T03:22:41.415Z,42.23
2019-04-25T03:25:13.364Z,37.90
2019-04-25T03:27:37.265Z,39.13
2019-04-25T03:30:10.746Z,35.73
2019-04-25T03:32:35.588Z,39.03
2019-04-25T03:35:04.946Z,43.73
2019-04-25T03:37:33.040Z,40.23
2019-04-25T03:39:59.872Z,42.83
2019-04-25T03:42:26.398Z,39.57
2019-04-25T03:44:53.816Z,39.47
2019-04-25T03:47:20.685Z,40.30
2019-04-25T03:49:47.932Z,47.03
2019-04-25T03:52:14.380Z,68.97
2019-04-25T03:54:40.787Z,65.23
2019-04-25T03:57:07.512Z,70.17
2019-04-25T03:59:35.569Z,62.10
2019-04-25T04:02:03.838Z,60.93
2019-04-25T04:04:30.749Z,49.83
2019-04-25T04:06:57.351Z,41.87
2019-04-25T04:09:24.144Z,49.83
2019-04-25T04:11:51.275Z,48.70
2019-04-25T04:14:18.186Z,40.57
2019-04-25T04:17:05.073Z,40.77
2019-04-25T04:19:33.804Z,39.93
2019-04-25T04:22:03.107Z,40.57
2019-04-25T04:24:34.153Z,35.73
2019-04-25T04:27:08.542Z,33.27
2019-04-25T04:29:34.393Z,41.87
2019-04-25T04:32:00.981Z,37.10
2019-04-25T04:34:27.402Z,39.50
2019-04-25T04:36:54.173Z,43.57
2019-04-25T04:39:20.523Z,44.27
2019-04-25T04:41:47.345Z,35.07
2019-04-25T04:44:14.290Z,38.00
2019-04-25T04:46:43.901Z,47.40
2019-04-25T04:49:10.623Z,44.37
2019-04-25T04:51:36.961Z,41.10
2019-04-25T04:54:03.556Z,50.03
2019-04-25T04:56:31.076Z,47.37
2019-04-25T04:58:57.510Z,44.47
2019-04-25T05:01:25.750Z,40.13
2019-04-25T05:03:57.564Z,40.67
2019-04-25T05:06:25.816Z,44.33
2019-04-25T05:08:54.862Z,40.70
2019-04-25T05:11:23.566Z,36.80
2019-04-25T05:13:49.911Z,33.90
2019-04-25T05:16:16.583Z,33.30
2019-04-25T05:18:43.725Z,31.40
2019-04-25T05:21:11.864Z,38.40
2019-04-25T05:23:38.341Z,34.13
2019-04-25T05:26:05.010Z,30.23
2019-04-25T05:28:31.465Z,35.13
2019-04-25T05:31:14.349Z,37.10
2019-04-25T05:33:40.002Z,27.57
2019-04-25T05:36:06.428Z,30.53
2019-04-25T05:38:33.258Z,26.27
2019-04-25T05:41:01.875Z,34.87
2019-04-25T05:43:29.170Z,33.93
2019-04-25T05:45:55.720Z,27.80
2019-04-25T05:48:22.074Z,32.10
2019-04-25T05:50:48.503Z,32.00
2019-04-25T05:53:16.198Z,32.57
2019-04-25T05:55:44.131Z,32.10
2019-04-25T05:58:10.815Z,29.63
2019-04-25T06:00:37.737Z,27.33
2019-04-25T06:03:05.184Z,31.50
2019-04-25T06:05:33.401Z,29.73
2019-04-25T06:08:01.285Z,32.10
2019-04-25T06:10:47.862Z,27.33
2019-04-25T06:13:31.175Z,27.80
2019-04-25T06:15:59.493Z,33.10
2019-04-25T06:18:30.595Z,29.43
2019-04-25T06:20:57.104Z,31.53
2019-04-25T06:23:28.940Z,30.43
2019-04-25T06:25:56.088Z,28.57
2019-04-25T06:28:24.877Z,31.67
2019-04-25T06:30:51.696Z,27.23
2019-04-25T06:33:21.213Z,27.03
2019-04-25T06:35:47.646Z,29.50
2019-04-25T06:38:14.031Z,30.97
2019-04-25T06:40:40.517Z,34.40
2019-04-25T06:43:07.338Z,30.03
2019-04-25T06:45:38.540Z,25.93
2019-04-25T06:48:25.011Z,26.63
2019-04-25T06:50:53.712Z,29.93
2019-04-25T06:53:20.688Z,35.50
2019-04-25T06:55:47.148Z,29.23
2019-04-25T06:58:14.655Z,31.63
2019-04-25T07:00:55.817Z,28.73
2019-04-25T07:03:09.927Z,31.27
2019-04-25T07:05:40.443Z,41.53
2019-04-25T07:08:04.838Z,27.93
2019-04-25T07:10:33.659Z,31.70
2019-04-25T07:12:59.508Z,36.43
2019-04-25T07:15:26.939Z,26.50
2019-04-25T07:17:54.640Z,28.50
2019-04-25T07:20:25.694Z,32.20
2019-04-25T07:22:53.668Z,30.75
2019-04-25T07:25:26.359Z,29.27
2019-04-25T07:27:59.758Z,25.48
2019-04-25T07:30:50.131Z,25.25
2019-04-25T07:33:23.319Z,28.15
2019-04-25T07:35:51.041Z,30.73
2019-04-25T07:38:17.571Z,31.68
2019-04-25T07:40:45.115Z,29.27
2019-04-25T07:43:13.322Z,33.50
2019-04-25T07:45:40.015Z,24.98
2019-04-25T07:48:06.580Z,24.87
2019-04-25T07:50:35.339Z,28.95
2019-04-25T07:53:01.470Z,29.82
2019-04-25T07:55:27.828Z,28.05
2019-04-25T07:57:54.256Z,30.68
2019-04-25T08:00:24.025Z,29.27
2019-04-25T08:02:50.934Z,30.40
2019-04-25T08:05:18.997Z,33.25
2019-04-25T08:07:45.937Z,30.15
2019-04-25T08:10:15.489Z,29.67
2019-04-25T08:12:44.445Z,29.35
2019-04-25T08:15:13.912Z,28.95
2019-04-25T08:17:59.125Z,37.60
2019-04-25T08:20:29.104Z,26.40
2019-04-25T08:22:59.342Z,30.70
2019-04-25T08:25:26.082Z,27.42
2019-04-25T08:27:53.569Z,27.98
2019-04-25T08:30:21.955Z,33.13
2019-04-25T08:32:48.489Z,28.17
2019-04-25T08:35:16.099Z,29.70
2019-04-25T08:37:44.080Z,32.20
2019-04-25T08:40:13.604Z,23.15
2019-04-25T08:42:40.567Z,30.92
2019-04-25T08:45:09.312Z,28.70
2019-04-25T08:47:36.162Z,32.42
2019-04-25T08:50:24.629Z,28.90
2019-04-25T08:52:40.090Z,24.65
2019-04-25T08:55:09.198Z,25.48
2019-04-25T08:57:49.422Z,29.45
2019-04-25T09:00:22.097Z,24.70
2019-04-25T09:02:54.425Z,25.62
2019-04-25T09:05:25.487Z,26.68
2019-04-25T09:07:52.026Z,28.00
2019-04-25T09:10:18.620Z,28.60
2019-04-25T09:12:45.412Z,23.67
2019-04-25T09:15:14.073Z,22.87
2019-04-25T09:17:41.391Z,25.75
2019-04-25T09:20:08.443Z,23.50
2019-04-25T09:22:36.467Z,27.67
2019-04-25T09:25:08.885Z,23.22
2019-04-25T09:27:39.259Z,19.82
2019-04-25T09:30:06.409Z,25.90
2019-04-25T09:32:33.829Z,26.00
2019-04-25T09:35:03.730Z,26.85
2019-04-25T09:37:29.761Z,24.95
2019-04-25T09:40:15.760Z,23.67
2019-04-25T09:42:45.125Z,27.10
2019-04-25T09:45:24.735Z,23.60
2019-04-25T09:47:54.473Z,26.10
2019-04-25T09:50:25.960Z,20.40
2019-04-25T09:52:53.937Z,26.70
2019-04-25T09:55:31.537Z,21.62
2019-04-25T09:58:04.075Z,25.82
2019-04-25T10:00:33.423Z,33.85
2019-04-25T10:03:00.945Z,26.23
2019-04-25T10:05:28.314Z,23.50
2019-04-25T10:07:55.700Z,27.80
2019-04-25T10:10:24.098Z,26.35
2019-04-25T10:12:50.640Z,22.32
2019-04-25T10:15:37.723Z,26.87
2019-04-25T10:18:04.407Z,22.27
2019-04-25T10:20:31.084Z,29.80
2019-04-25T10:22:57.475Z,25.48
2019-04-25T10:25:24.137Z,20.75
2019-04-25T10:27:53.808Z,22.65
2019-04-25T10:30:23.572Z,24.45
2019-04-25T10:32:49.710Z,27.50
2019-04-25T10:35:16.316Z,24.45
2019-04-25T10:37:43.718Z,28.17
2019-04-25T10:40:13.409Z,25.57
2019-04-25T10:42:40.674Z,25.50
2019-04-25T10:45:20.392Z,22.02
2019-04-25T10:47:37.970Z,23.95
2019-04-25T10:50:06.738Z,24.20
2019-04-25T10:52:33.845Z,30.12
2019-04-25T10:55:00.570Z,23.90
2019-04-25T10:57:27.442Z,23.05
2019-04-25T11:00:05.101Z,23.20
2019-04-25T11:02:23.581Z,25.05
2019-04-25T11:04:54.517Z,22.62
2019-04-25T11:07:21.324Z,27.13
2019-04-25T11:09:49.148Z,21.20
2019-04-25T11:12:16.019Z,22.65
2019-04-25T11:14:43.049Z,21.23
2019-04-25T11:17:10.123Z,29.72
2019-04-25T11:19:37.341Z,20.12
2019-04-25T11:22:05.223Z,20.80
2019-04-25T11:24:34.277Z,25.12
2019-04-25T11:27:01.636Z,22.50
2019-04-25T11:29:28.676Z,20.23
2019-04-25T11:31:55.803Z,23.00
2019-04-25T11:34:23.384Z,26.65
2019-04-25T11:36:50.706Z,21.73
2019-04-25T11:39:25.271Z,23.10
2019-04-25T11:41:51.811Z,25.55
2019-04-25T11:44:18.763Z,25.27
2019-04-25T11:46:45.788Z,24.30
2019-04-25T11:49:15.290Z,29.23
2019-04-25T11:51:44.842Z,19.32
2019-04-25T11:54:10.665Z,17.32
2019-04-25T11:56:37.783Z,23.30
2019-04-25T11:59:04.627Z,19.70
2019-04-25T12:01:31.088Z,20.82
2019-04-25T12:03:57.523Z,20.32
2019-04-25T12:06:24.444Z,24.15
2019-04-25T12:08:51.538Z,24.02
2019-04-25T12:11:18.150Z,23.75
2019-04-25T12:13:46.916Z,20.57
2019-04-25T12:16:14.496Z,19.48
2019-04-25T12:18:43.504Z,22.82
2019-04-25T12:21:10.827Z,20.48
2019-04-25T12:23:37.367Z,20.52
2019-04-25T12:26:03.994Z,25.70
2019-04-25T12:28:30.663Z,19.32
2019-04-25T12:30:57.635Z,22.27
2019-04-25T12:33:24.391Z,23.98
2019-04-25T12:35:50.713Z,21.42
2019-04-25T12:38:20.274Z,19.75
2019-04-25T12:40:46.966Z,14.20
2019-04-25T12:43:14.200Z,20.92
2019-04-25T12:45:43.380Z,20.40
2019-04-25T12:48:12.033Z,21.77
2019-04-25T12:50:39.524Z,21.85
2019-04-25T12:53:06.281Z,21.80
2019-04-25T12:55:34.186Z,20.32
2019-04-25T12:58:03.426Z,17.55
2019-04-25T13:00:30.628Z,22.30
2019-04-25T13:02:57.175Z,21.60
2019-04-25T13:05:24.440Z,17.95
2019-04-25T13:07:51.472Z,17.37
2019-04-25T13:10:19.482Z,23.15
2019-04-25T13:12:46.053Z,21.65
2019-04-25T13:15:13.834Z,18.42
2019-04-25T13:17:40.522Z,19.73
2019-04-25T13:20:08.687Z,26.85
2019-04-25T13:22:35.538Z,21.15
2019-04-25T13:25:05.682Z,21.60
2019-04-25T13:27:35.941Z,23.22
2019-04-25T13:30:11.854Z,32.45
2019-04-25T13:32:43.452Z,32.35
2019-04-25T13:35:17.872Z,24.27
2019-04-25T13:37:44.406Z,25.65
2019-04-25T13:40:11.462Z,22.35
2019-04-25T13:42:38.259Z,17.70
2019-04-25T13:45:06.447Z,25.08
2019-04-25T13:47:32.947Z,20.72
2019-04-25T13:49:59.503Z,25.50
2019-04-25T13:52:26.517Z,20.55
2019-04-25T13:54:53.887Z,24.15
2019-04-25T13:57:20.758Z,20.30
2019-04-25T13:59:48.293Z,23.25
2019-04-25T14:02:15.363Z,29.80
2019-04-25T14:04:44.119Z,22.58
2019-04-25T14:07:11.543Z,24.23
2019-04-25T14:09:37.898Z,21.50
2019-04-25T14:12:05.683Z,21.77
2019-04-25T14:14:34.000Z,27.42
2019-04-25T14:17:04.970Z,29.52
2019-04-25T14:19:36.125Z,35.38
2019-04-25T14:22:05.054Z,31.35
2019-04-25T14:24:32.288Z,20.02
2019-04-25T14:27:00.279Z,22.75
2019-04-25T14:29:26.821Z,21.33
2019-04-25T14:31:53.713Z,27.48
2019-04-25T14:34:20.894Z,22.93
2019-04-25T14:36:49.499Z,20.72
2019-04-25T14:39:16.974Z,26.17
2019-04-25T14:41:43.525Z,17.42
2019-04-25T14:44:10.086Z,23.67
2019-04-25T14:46:37.820Z,24.07
2019-04-25T14:49:04.657Z,20.23
2019-04-25T14:51:31.407Z,24.95
2019-04-25T14:53:59.555Z,29.67
2019-04-25T14:56:34.855Z,29.42
2019-04-25T14:59:01.454Z,26.90
2019-04-25T15:01:28.131Z,23.25
2019-04-25T15:03:55.298Z,24.23
2019-04-25T15:06:22.146Z,24.65
2019-04-25T15:08:48.683Z,25.05
2019-04-25T15:11:15.429Z,23.57
2019-04-25T15:13:43.266Z,27.37
2019-04-25T15:16:09.693Z,23.38
2019-04-25T15:18:46.142Z,28.98
2019-04-25T15:21:05.471Z,31.23
2019-04-25T15:23:32.122Z,20.25
2019-04-25T15:25:58.577Z,27.48
2019-04-25T15:28:25.306Z,22.27
2019-04-25T15:30:53.233Z,24.47
2019-04-25T15:33:20.288Z,20.37
2019-04-25T15:35:57.555Z,26.23
2019-04-25T15:38:25.852Z,33.00
2019-04-25T15:41:12.078Z,20.43
2019-04-25T15:43:43.367Z,21.68
2019-04-25T15:46:18.260Z,23.57
2019-04-25T15:48:46.070Z,21.37
2019-04-25T15:51:12.581Z,21.97
2019-04-25T15:53:40.238Z,23.85
2019-04-25T15:56:07.075Z,21.82
2019-04-25T15:58:34.124Z,20.68
2019-04-25T16:01:01.189Z,27.25
2019-04-25T16:03:28.341Z,23.40
2019-04-25T16:05:54.943Z,24.40
2019-04-25T16:08:21.485Z,27.00
2019-04-25T16:10:48.121Z,26.52
2019-04-25T16:13:14.674Z,22.52
2019-04-25T16:15:41.448Z,23.98
2019-04-25T16:18:08.656Z,25.02
2019-04-25T16:20:35.749Z,26.50
2019-04-25T16:23:05.427Z,17.27
2019-04-25T16:25:31.825Z,21.70
2019-04-25T16:27:59.309Z,22.10
2019-04-25T16:30:28.426Z,27.10
2019-04-25T16:32:56.981Z,23.40
2019-04-25T16:35:23.597Z,28.57
2019-04-25T16:37:50.247Z,26.73
2019-04-25T16:40:17.275Z,21.62
2019-04-25T16:42:43.808Z,21.82
2019-04-25T16:45:11.279Z,21.15
2019-04-25T16:47:38.295Z,21.82
2019-04-25T16:50:05.549Z,23.45
2019-04-25T16:52:32.614Z,46.35
2019-04-25T16:54:59.155Z,26.12
2019-04-25T16:57:25.792Z,19.52
2019-04-25T16:59:52.993Z,21.97
2019-04-25T17:02:32.206Z,21.90
2019-04-25T17:04:49.031Z,24.80
2019-04-25T17:07:15.692Z,26.82
2019-04-25T17:09:42.834Z,22.00
2019-04-25T17:12:11.512Z,20.27
2019-04-25T17:14:40.342Z,23.90
2019-04-25T17:17:23.774Z,25.52
2019-04-25T17:19:55.849Z,74.90
2019-04-25T17:22:23.675Z,48.42
2019-04-25T17:24:50.223Z,30.35
2019-04-25T17:27:17.289Z,24.98
2019-04-25T17:29:43.867Z,23.05
2019-04-25T17:32:12.717Z,32.58
2019-04-25T17:34:41.066Z,24.15
2019-04-25T17:37:15.514Z,28.23
2019-04-25T17:39:54.122Z,22.90
2019-04-25T17:42:20.647Z,45.23
2019-04-25T17:44:47.162Z,30.72
2019-04-25T17:47:13.742Z,31.25
2019-04-25T17:49:40.222Z,27.27
2019-04-25T17:52:07.174Z,23.00
2019-04-25T17:54:34.353Z,29.87
2019-04-25T17:57:00.796Z,22.87
2019-04-25T17:59:27.457Z,29.55
2019-04-25T18:01:54.093Z,31.05
2019-04-25T18:04:20.527Z,26.75
2019-04-25T18:06:46.976Z,32.35
2019-04-25T18:09:13.547Z,32.40
2019-04-25T18:11:40.195Z,34.18
2019-04-25T18:14:06.917Z,25.70
2019-04-25T18:16:38.140Z,25.43
2019-04-25T18:19:27.445Z,35.68
2019-04-25T18:21:55.786Z,30.68
2019-04-25T18:24:41.195Z,35.60
2019-04-25T18:27:12.907Z,37.42
2019-04-25T18:29:39.528Z,30.68
2019-04-25T18:32:06.422Z,37.20
2019-04-25T18:34:37.512Z,75.65
2019-04-25T18:37:22.629Z,44.93
2019-04-25T18:39:54.827Z,43.02
2019-04-25T18:42:26.167Z,31.05
2019-04-25T18:44:53.242Z,33.53
2019-04-25T18:47:20.214Z,33.58
2019-04-25T18:49:46.820Z,33.18
2019-04-25T18:52:15.375Z,29.12
2019-04-25T18:54:56.985Z,34.92
2019-04-25T18:57:28.259Z,35.92
2019-04-25T18:59:59.309Z,35.85
2019-04-25T19:02:42.551Z,36.05
2019-04-25T19:05:11.147Z,34.98
2019-04-25T19:07:38.640Z,33.13
2019-04-25T19:10:08.756Z,40.12
2019-04-25T19:12:35.227Z,40.73
2019-04-25T19:15:02.244Z,33.67
2019-04-25T19:17:28.846Z,41.37
2019-04-25T19:19:55.762Z,33.70
2019-04-25T19:22:22.391Z,36.60
2019-04-25T19:24:48.909Z,31.95
2019-04-25T19:27:23.502Z,36.77
2019-04-25T19:29:44.133Z,41.90
2019-04-25T19:32:10.807Z,48.40
2019-04-25T19:34:37.277Z,54.33
2019-04-25T19:37:05.293Z,56.70
2019-04-25T19:39:33.725Z,55.00
2019-04-25T19:42:19.179Z,50.78
2019-04-25T19:44:47.105Z,42.58
2019-04-25T19:47:13.881Z,63.98
2019-04-25T19:49:40.639Z,64.80
2019-04-25T19:52:08.287Z,52.88
2019-04-25T19:54:34.924Z,64.60
2019-04-25T19:57:01.601Z,50.25
2019-04-25T19:59:28.409Z,38.38
2019-04-25T20:01:58.396Z,38.23
2019-04-25T20:04:36.609Z,33.67
2019-04-25T20:07:07.584Z,65.12
2019-04-25T20:09:38.820Z,58.05
2019-04-25T20:12:05.363Z,70.17
2019-04-25T20:14:31.806Z,65.72
2019-04-25T20:16:58.387Z,53.60
2019-04-25T20:19:24.745Z,68.57
2019-04-25T20:21:52.114Z,59.83
2019-04-25T20:24:18.846Z,56.25
2019-04-25T20:26:46.334Z,36.88
2019-04-25T20:29:13.278Z,32.50
2019-04-25T20:31:41.364Z,39.20
2019-04-25T20:34:09.072Z,51.30
2019-04-25T20:36:35.490Z,49.75
2019-04-25T20:39:02.826Z,57.07
2019-04-25T20:41:29.263Z,52.73
2019-04-25T20:43:55.623Z,55.50
2019-04-25T20:46:22.442Z,56.23
2019-04-25T20:48:50.123Z,52.35
2019-04-25T20:51:17.171Z,50.10
2019-04-25T20:53:43.643Z,56.17
2019-04-25T20:56:10.683Z,68.55
2019-04-25T20:58:37.117Z,59.10
2019-04-25T21:01:03.744Z,55.70
2019-04-25T21:03:30.317Z,74.40
2019-04-25T21:05:59.128Z,82.20
2019-04-25T21:08:25.543Z,96.77
2019-04-25T21:10:52.453Z,90.63
2019-04-25T21:13:20.804Z,94.80
2019-04-25T21:15:49.594Z,90.13
2019-04-25T21:18:19.464Z,92.10
2019-04-25T21:20:45.950Z,99.40
2019-04-25T21:23:12.399Z,79.03
2019-04-25T21:25:39.106Z,76.60
2019-04-25T21:28:05.868Z,78.90
2019-04-25T21:30:32.402Z,83.65
2019-04-25T21:32:59.546Z,54.80
2019-04-25T21:35:26.615Z,57.20
2019-04-25T21:37:53.543Z,58.23
2019-04-25T21:40:22.496Z,51.10
2019-04-25T21:42:51.576Z,63.90
2019-04-25T21:45:19.435Z,60.80
2019-04-25T21:47:46.285Z,65.40
2019-04-25T21:50:14.013Z,68.10
2019-04-25T21:52:41.307Z,61.40
2019-04-25T21:55:08.514Z,71.77
2019-04-25T21:57:35.303Z,70.83
2019-04-25T22:00:11.138Z,57.00
2019-04-25T22:02:38.893Z,71.53
2019-04-25T22:05:06.440Z,62.03
2019-04-25T22:07:33.478Z,62.93
2019-04-25T22:10:00.508Z,55.60
2019-04-25T22:12:27.069Z,52.63
2019-04-25T22:14:55.130Z,57.73
2019-04-25T22:17:22.291Z,48.27
2019-04-25T22:19:49.850Z,48.33
2019-04-25T22:22:16.731Z,57.07
2019-04-25T22:24:43.490Z,48.03
2019-04-25T22:27:12.352Z,44.03
2019-04-25T22:29:41.139Z,50.43
2019-04-25T22:32:12.143Z,46.57
2019-04-25T22:34:51.738Z,40.33
2019-04-25T22:37:09.164Z,42.93
2019-04-25T22:39:36.506Z,44.47
2019-04-25T22:42:04.917Z,48.23
2019-04-25T22:44:33.889Z,49.00
2019-04-25T22:47:00.934Z,44.73
2019-04-25T22:49:27.595Z,41.23
2019-04-25T22:54:30.157Z,43.03
2019-04-25T22:56:56.466Z,45.70
2019-04-25T22:59:24.708Z,52.90
2019-04-25T23:01:59.154Z,46.57
2019-04-25T23:04:40.172Z,45.30
2019-04-25T23:07:06.711Z,46.80
2019-04-25T23:09:35.020Z,47.10
2019-04-25T23:12:02.093Z,44.27
2019-04-25T23:14:28.774Z,45.40
2019-04-25T23:16:55.241Z,53.63
2019-04-25T23:19:21.614Z,48.60
2019-04-25T23:21:48.858Z,48.33
2019-04-25T23:24:18.324Z,45.40
2019-04-25T23:27:02.443Z,52.03
2019-04-25T23:29:29.042Z,53.23
2019-04-25T23:31:55.579Z,52.73
2019-04-25T23:34:22.556Z,57.77
2019-04-25T23:36:48.936Z,53.10
2019-04-25T23:39:15.509Z,52.40
2019-04-25T23:41:41.928Z,53.03
2019-04-25T23:44:08.361Z,52.40
2019-04-25T23:46:35.123Z,49.03
2019-04-25T23:49:02.249Z,50.30
2019-04-25T23:51:28.751Z,54.13
2019-04-25T23:53:56.037Z,55.57
2019-04-25T23:56:22.464Z,58.93
2019-04-25T23:58:49.544Z,58.07
